createdAt,value
2022-09-21T00:01:27.239Z,1.27
2022-09-21T00:03:55.940Z,3.10
2022-09-21T00:06:24.658Z,2.78
2022-09-21T00:08:52.088Z,1.67
2022-09-21T00:11:21.913Z,1.92
2022-09-21T00:16:18.933Z,1.42
2022-09-21T00:18:45.788Z,2.45
2022-09-21T00:21:15.059Z,2.37
2022-09-21T00:23:42.451Z,4.18
2022-09-21T00:26:21.194Z,2.87
2022-09-21T00:28:52.471Z,3.00
2022-09-21T00:31:19.315Z,2.72
2022-09-21T00:33:46.553Z,5.45
2022-09-21T00:36:19.019Z,3.05
2022-09-21T00:38:50.150Z,2.05
2022-09-21T00:41:17.013Z,2.22
2022-09-21T00:43:47.915Z,1.87
2022-09-21T00:46:19.149Z,1.90
2022-09-21T00:48:47.109Z,2.12
2022-09-21T00:51:14.850Z,1.58
2022-09-21T00:53:41.816Z,1.58
2022-09-21T00:56:11.118Z,1.65
2022-09-21T00:58:45.088Z,2.58
2022-09-21T01:01:18.537Z,2.70
2022-09-21T01:03:47.504Z,1.92
2022-09-21T01:06:17.224Z,1.02
2022-09-21T01:08:47.096Z,3.97
2022-09-21T01:13:58.089Z,1.42
2022-09-21T01:16:57.115Z,1.25
2022-09-21T01:20:13.320Z,1.40
2022-09-21T01:23:07.047Z,1.37
2022-09-21T01:25:43.123Z,6.97
2022-09-21T01:28:36.707Z,1.25
2022-09-21T01:31:06.993Z,1.85
2022-09-21T01:33:44.369Z,0.68
2022-09-21T01:36:16.611Z,2.67
2022-09-21T01:38:51.331Z,1.05
2022-09-21T01:41:28.981Z,1.45
2022-09-21T01:44:03.074Z,2.15
2022-09-21T01:46:32.681Z,1.33
2022-09-21T01:49:06.037Z,1.35
2022-09-21T01:51:34.584Z,1.92
2022-09-21T01:54:12.996Z,1.23
2022-09-21T01:56:45.125Z,0.80
2022-09-21T01:59:11.799Z,1.12
2022-09-21T02:02:05.411Z,2.42
2022-09-21T02:04:35.298Z,2.37
2022-09-21T02:09:29.078Z,7.53
2022-09-21T02:11:57.064Z,1.77
2022-09-21T02:14:25.729Z,2.62
2022-09-21T02:17:15.491Z,1.30
2022-09-21T02:19:47.939Z,3.05
2022-09-21T02:22:31.908Z,2.58
2022-09-21T02:25:08.541Z,0.85
2022-09-21T02:27:56.740Z,2.33
2022-09-21T02:30:25.597Z,3.17
2022-09-21T02:33:05.188Z,1.30
2022-09-21T02:35:45.528Z,1.80
2022-09-21T02:38:20.537Z,1.00
2022-09-21T02:43:57.589Z,3.17
2022-09-21T02:46:38.171Z,1.08
2022-09-21T02:49:10.480Z,1.58
2022-09-21T02:51:47.900Z,3.08
2022-09-21T02:54:22.901Z,1.10
2022-09-21T02:56:51.608Z,1.48
2022-09-21T02:59:18.572Z,1.37
2022-09-21T03:01:45.414Z,1.30
2022-09-21T03:04:12.168Z,1.65
2022-09-21T03:06:38.984Z,2.50
2022-09-21T03:09:05.789Z,1.23
2022-09-21T03:11:32.570Z,3.53
2022-09-21T03:13:59.928Z,2.40
2022-09-21T03:16:26.679Z,3.30
2022-09-21T03:18:53.448Z,2.08
2022-09-21T03:21:20.268Z,2.42
2022-09-21T03:23:46.958Z,2.47
2022-09-21T03:26:13.688Z,3.67
2022-09-21T03:28:40.409Z,2.75
2022-09-21T03:31:07.168Z,2.70
2022-09-21T03:33:34.008Z,3.05
2022-09-21T03:36:00.708Z,3.25
2022-09-21T03:38:27.449Z,2.65
2022-09-21T03:40:58.019Z,5.37
2022-09-21T03:43:25.418Z,5.20
2022-09-21T03:45:52.989Z,3.50
2022-09-21T03:48:21.803Z,4.35
2022-09-21T03:50:48.600Z,4.28
2022-09-21T03:53:15.816Z,4.87
2022-09-21T03:55:43.322Z,2.97
2022-09-21T03:58:10.205Z,5.00
2022-09-21T04:00:38.353Z,2.37
2022-09-21T04:03:05.560Z,2.12
2022-09-21T04:05:32.797Z,3.15
2022-09-21T04:08:02.137Z,2.58
2022-09-21T04:10:33.109Z,3.17
2022-09-21T04:13:04.536Z,2.10
2022-09-21T04:15:31.573Z,4.82
2022-09-21T04:17:59.302Z,4.22
2022-09-21T04:20:26.253Z,3.50
2022-09-21T04:22:53.039Z,3.78
2022-09-21T04:25:20.579Z,4.22
2022-09-21T04:27:47.438Z,2.30
2022-09-21T04:30:16.008Z,3.17
2022-09-21T04:32:43.039Z,3.72
2022-09-21T04:35:10.671Z,3.00
2022-09-21T04:37:37.762Z,2.42
2022-09-21T04:40:05.985Z,3.20
2022-09-21T04:42:33.439Z,4.75
2022-09-21T04:45:00.808Z,2.70
2022-09-21T04:47:33.019Z,3.15
2022-09-21T04:49:59.728Z,3.75
2022-09-21T04:52:26.607Z,1.50
2022-09-21T04:54:53.363Z,2.67
2022-09-21T04:57:20.093Z,4.43
2022-09-21T04:59:46.826Z,1.87
2022-09-21T05:02:13.593Z,2.45
2022-09-21T05:04:40.414Z,4.28
2022-09-21T05:07:07.226Z,4.30
2022-09-21T05:09:52.883Z,7.07
2022-09-21T05:12:19.595Z,6.70
2022-09-21T05:15:03.343Z,6.45
2022-09-21T05:17:32.852Z,2.78
2022-09-21T05:19:59.731Z,3.12
2022-09-21T05:22:28.082Z,2.50
2022-09-21T05:24:55.943Z,1.87
2022-09-21T05:27:22.789Z,3.72
2022-09-21T05:29:49.972Z,3.67
2022-09-21T05:32:28.902Z,2.15
2022-09-21T05:35:24.528Z,2.47
2022-09-21T05:38:02.649Z,2.90
2022-09-21T05:40:29.794Z,2.08
2022-09-21T05:42:56.928Z,3.95
2022-09-21T05:45:24.159Z,1.52
2022-09-21T05:48:06.157Z,3.50
2022-09-21T05:50:54.511Z,4.43
2022-09-21T05:53:36.379Z,2.50
2022-09-21T05:56:24.958Z,4.05
2022-09-21T05:59:25.432Z,2.37
2022-09-21T06:02:04.396Z,3.28
2022-09-21T06:04:31.689Z,2.83
2022-09-21T06:06:58.449Z,2.60
2022-09-21T06:09:26.855Z,3.30
2022-09-21T06:11:53.939Z,1.73
2022-09-21T06:14:24.870Z,2.17
2022-09-21T06:16:52.211Z,3.20
2022-09-21T06:19:19.302Z,4.05
2022-09-21T06:21:46.331Z,1.60
2022-09-21T06:24:13.225Z,3.67
2022-09-21T06:26:39.952Z,2.67
2022-09-21T06:29:06.971Z,2.22
2022-09-21T06:31:33.756Z,4.35
2022-09-21T06:34:00.610Z,1.75
2022-09-21T06:36:27.647Z,3.17
2022-09-21T06:39:04.172Z,2.33
2022-09-21T06:41:31.083Z,2.25
2022-09-21T06:43:58.009Z,3.55
2022-09-21T06:46:24.979Z,2.72
2022-09-21T06:48:51.977Z,2.25
2022-09-21T06:51:21.078Z,5.68
2022-09-21T06:53:48.795Z,3.72
2022-09-21T06:56:16.208Z,3.20
2022-09-21T06:58:43.039Z,2.60
2022-09-21T07:01:12.629Z,3.67
2022-09-21T07:03:41.375Z,2.95
2022-09-21T07:06:09.589Z,3.55
2022-09-21T07:11:24.186Z,2.03
2022-09-21T07:13:51.328Z,4.40
2022-09-21T07:16:19.931Z,4.72
2022-09-21T07:18:47.439Z,2.05
2022-09-21T07:21:14.992Z,3.53
2022-09-21T07:23:41.843Z,3.37
2022-09-21T07:26:11.085Z,1.80
2022-09-21T07:28:38.444Z,5.78
2022-09-21T07:31:10.241Z,4.10
2022-09-21T07:33:37.991Z,3.75
2022-09-21T07:36:10.588Z,2.25
2022-09-21T07:38:40.134Z,4.12
2022-09-21T07:41:08.377Z,4.57
2022-09-21T07:43:35.295Z,3.83
2022-09-21T07:46:02.332Z,3.20
2022-09-21T07:48:29.245Z,2.97
2022-09-21T07:51:01.385Z,2.97
2022-09-21T07:53:28.185Z,1.95
2022-09-21T07:56:01.323Z,1.42
2022-09-21T07:58:46.826Z,3.00
2022-09-21T08:01:13.738Z,1.87
2022-09-21T08:03:40.771Z,4.90
2022-09-21T08:06:09.490Z,3.87
2022-09-21T08:08:37.091Z,2.15
2022-09-21T08:11:08.541Z,1.58
2022-09-21T08:13:35.332Z,2.05
2022-09-21T08:16:03.453Z,3.12
2022-09-21T08:18:30.716Z,2.47
2022-09-21T08:21:00.499Z,1.75
2022-09-21T08:23:29.311Z,4.62
2022-09-21T08:26:03.730Z,1.60
2022-09-21T08:28:31.461Z,3.45
2022-09-21T08:31:02.657Z,2.12
2022-09-21T08:33:29.991Z,2.05
2022-09-21T08:36:00.270Z,1.87
2022-09-21T08:38:32.337Z,1.75
2022-09-21T08:41:02.303Z,3.80
2022-09-21T08:43:40.051Z,3.28
2022-09-21T08:46:13.080Z,2.22
2022-09-21T08:48:46.642Z,2.30
2022-09-21T08:51:23.356Z,1.60
2022-09-21T08:53:53.932Z,3.60
2022-09-21T08:56:23.491Z,2.10
2022-09-21T08:58:50.406Z,1.70
2022-09-21T09:01:20.230Z,2.25
2022-09-21T09:04:41.830Z,1.45
2022-09-21T09:07:28.852Z,4.72
2022-09-21T09:10:26.898Z,2.92
2022-09-21T09:13:20.952Z,1.77
2022-09-21T09:16:12.966Z,4.75
2022-09-21T09:18:52.908Z,3.05
2022-09-21T09:21:38.613Z,2.60
2022-09-21T09:24:14.380Z,2.90
2022-09-21T09:26:49.915Z,4.32
2022-09-21T09:29:29.360Z,2.28
2022-09-21T09:31:58.452Z,1.70
2022-09-21T09:34:32.365Z,4.05
2022-09-21T09:37:10.370Z,1.00
2022-09-21T09:39:39.188Z,1.67
2022-09-21T09:42:09.060Z,2.27
2022-09-21T09:45:02.217Z,1.25
2022-09-21T09:47:47.711Z,4.80
2022-09-21T09:50:34.278Z,1.50
2022-09-21T09:53:15.152Z,1.80
2022-09-21T09:55:46.583Z,0.95
2022-09-21T09:58:38.798Z,1.05
2022-09-21T10:01:06.542Z,0.88
2022-09-21T10:03:33.590Z,1.77
2022-09-21T10:06:00.516Z,1.15
2022-09-21T10:08:44.450Z,1.20
2022-09-21T10:11:17.083Z,2.15
2022-09-21T10:13:46.849Z,1.12
2022-09-21T10:16:15.449Z,1.10
2022-09-21T10:18:49.382Z,1.80
2022-09-21T10:21:37.966Z,1.62
2022-09-21T10:24:08.175Z,3.78
2022-09-21T10:26:46.005Z,5.50
2022-09-21T10:29:26.722Z,3.30
2022-09-21T10:32:08.955Z,1.27
2022-09-21T10:34:39.223Z,2.87
2022-09-21T10:37:28.915Z,1.42
2022-09-21T10:39:56.530Z,3.10
2022-09-21T10:42:23.888Z,2.37
2022-09-21T10:44:53.762Z,2.08
2022-09-21T10:47:34.440Z,0.75
2022-09-21T10:50:05.850Z,1.42
2022-09-21T10:52:38.800Z,1.05
2022-09-21T10:55:08.558Z,2.35
2022-09-21T10:57:35.513Z,0.60
2022-09-21T11:00:24.110Z,1.20
2022-09-21T11:02:51.184Z,0.95
2022-09-21T11:05:25.650Z,0.68
2022-09-21T11:08:11.329Z,0.75
2022-09-21T11:11:08.241Z,0.85
2022-09-21T11:13:44.819Z,6.30
2022-09-21T11:16:50.560Z,0.82
2022-09-21T11:19:49.001Z,2.60
2022-09-21T11:22:31.120Z,1.35
2022-09-21T11:25:37.502Z,3.60
2022-09-21T11:28:31.790Z,0.82
2022-09-21T11:31:01.527Z,2.87
2022-09-21T11:33:39.651Z,2.65
2022-09-21T11:36:33.170Z,1.27
2022-09-21T11:39:09.951Z,1.23
2022-09-21T11:41:48.890Z,1.92
2022-09-21T11:44:21.920Z,1.58
2022-09-21T11:47:12.999Z,0.88
2022-09-21T11:50:34.310Z,1.08
2022-09-21T11:53:25.717Z,0.70
2022-09-21T11:56:16.831Z,0.55
2022-09-21T11:59:07.322Z,0.47
2022-09-21T12:01:37.050Z,0.62
2022-09-21T12:06:50.108Z,1.55
2022-09-21T12:09:18.050Z,0.57
2022-09-21T12:12:02.882Z,2.35
2022-09-21T12:15:00.366Z,3.78
2022-09-21T12:17:53.481Z,0.30
2022-09-21T12:20:43.489Z,0.65
2022-09-21T12:23:19.561Z,0.65
2022-09-21T12:26:15.940Z,1.00
2022-09-21T12:28:52.117Z,2.33
2022-09-21T12:31:42.336Z,1.70
2022-09-21T12:34:19.026Z,1.12
2022-09-21T12:37:05.883Z,1.50
2022-09-21T12:39:49.279Z,2.28
2022-09-21T12:42:42.142Z,1.45
2022-09-21T12:45:22.063Z,0.62
2022-09-21T12:47:54.156Z,1.20
2022-09-21T12:50:35.181Z,1.65
2022-09-21T12:53:02.858Z,2.08
2022-09-21T12:55:44.682Z,1.92
2022-09-21T12:58:17.099Z,1.08
2022-09-21T13:01:05.537Z,3.58
2022-09-21T13:03:50.460Z,0.95
2022-09-21T13:06:41.717Z,2.12
2022-09-21T13:09:12.959Z,0.50
2022-09-21T13:12:01.872Z,0.95
2022-09-21T13:14:36.667Z,0.40
2022-09-21T13:17:06.071Z,1.35
2022-09-21T13:19:37.404Z,1.30
2022-09-21T13:22:22.733Z,2.00
2022-09-21T13:25:03.322Z,0.57
2022-09-21T13:28:00.889Z,1.48
2022-09-21T13:30:44.344Z,0.80
2022-09-21T13:33:20.209Z,0.80
2022-09-21T13:35:53.155Z,0.80
2022-09-21T13:38:27.228Z,1.02
2022-09-21T13:41:02.956Z,0.70
2022-09-21T13:43:48.415Z,0.62
2022-09-21T13:46:46.586Z,1.02
2022-09-21T13:49:16.024Z,1.58
2022-09-21T13:52:23.289Z,0.80
2022-09-21T13:54:52.400Z,1.27
2022-09-21T13:57:34.510Z,2.72
2022-09-21T14:00:13.392Z,1.95
2022-09-21T14:02:44.871Z,1.40
2022-09-21T14:05:30.112Z,1.83
2022-09-21T14:08:19.000Z,1.77
2022-09-21T14:10:55.577Z,2.42
2022-09-21T14:13:46.971Z,4.80
2022-09-21T14:16:34.838Z,2.00
2022-09-21T14:19:03.844Z,1.87
2022-09-21T14:21:31.476Z,0.95
2022-09-21T14:24:07.877Z,0.90
2022-09-21T14:26:41.440Z,1.10
2022-09-21T14:29:16.359Z,5.53
2022-09-21T14:31:43.833Z,4.35
2022-09-21T14:34:23.339Z,2.75
2022-09-21T14:39:30.394Z,1.47
2022-09-21T14:42:02.862Z,2.00
2022-09-21T14:44:31.832Z,4.50
2022-09-21T14:47:29.282Z,4.35
2022-09-21T14:50:18.630Z,4.40
2022-09-21T14:52:54.454Z,3.35
2022-09-21T14:55:28.191Z,2.10
2022-09-21T14:58:14.903Z,2.30
2022-09-21T15:00:44.452Z,2.28
2022-09-21T15:03:35.878Z,1.42
2022-09-21T15:06:39.936Z,1.85
2022-09-21T15:09:46.973Z,3.35
2022-09-21T15:13:01.152Z,1.10
2022-09-21T15:15:59.071Z,2.83
2022-09-21T15:18:26.304Z,1.12
2022-09-21T15:21:02.594Z,1.75
2022-09-21T15:23:33.932Z,1.27
2022-09-21T15:26:04.141Z,1.10
2022-09-21T15:29:08.884Z,0.90
2022-09-21T15:31:42.162Z,1.20
2022-09-21T15:34:11.240Z,0.80
2022-09-21T15:36:40.587Z,0.90
2022-09-21T15:39:20.610Z,0.60
2022-09-21T15:41:49.533Z,2.42
2022-09-21T15:44:24.086Z,3.53
2022-09-21T15:47:01.209Z,1.77
2022-09-21T15:49:30.106Z,0.88
2022-09-21T15:52:13.065Z,1.70
2022-09-21T15:54:52.263Z,1.73
2022-09-21T15:57:39.384Z,1.52
2022-09-21T16:00:15.816Z,1.12
2022-09-21T16:02:51.750Z,1.62
2022-09-21T16:05:22.266Z,1.17
2022-09-21T16:07:49.367Z,1.62
2022-09-21T16:10:31.278Z,2.42
2022-09-21T16:13:30.547Z,1.58
2022-09-21T16:16:01.891Z,3.25
2022-09-21T16:18:35.447Z,0.95
2022-09-21T16:21:22.438Z,1.35
2022-09-21T16:23:52.170Z,2.45
2022-09-21T16:26:32.886Z,3.12
2022-09-21T16:29:16.841Z,4.45
2022-09-21T16:31:49.888Z,4.40
2022-09-21T16:34:23.157Z,2.72
2022-09-21T16:36:51.682Z,6.12
2022-09-21T16:39:20.089Z,6.80
2022-09-21T16:41:54.207Z,4.62
2022-09-21T16:44:25.804Z,2.85
2022-09-21T16:46:56.898Z,3.70
2022-09-21T16:49:30.214Z,3.22
2022-09-21T16:51:59.788Z,5.35
2022-09-21T16:54:27.793Z,6.00
2022-09-21T16:56:57.643Z,4.70
2022-09-21T16:59:25.647Z,4.50
2022-09-21T17:01:56.522Z,5.53
2022-09-21T17:04:26.333Z,5.20
2022-09-21T17:06:54.285Z,4.25
2022-09-21T17:09:35.732Z,5.93
2022-09-21T17:12:04.535Z,4.40
2022-09-21T17:14:37.114Z,5.85
2022-09-21T17:17:11.066Z,3.70
2022-09-21T17:19:38.127Z,4.20
2022-09-21T17:22:07.181Z,3.72
2022-09-21T17:24:49.655Z,6.07
2022-09-21T17:27:19.406Z,3.97
2022-09-21T17:29:50.114Z,5.18
2022-09-21T17:32:21.629Z,2.92
2022-09-21T17:35:13.996Z,3.17
2022-09-21T17:37:40.770Z,3.65
2022-09-21T17:40:11.098Z,3.30
2022-09-21T17:42:44.464Z,7.28
2022-09-21T17:45:39.251Z,7.20
2022-09-21T17:48:11.056Z,7.60
2022-09-21T17:50:37.965Z,7.32
2022-09-21T17:53:23.958Z,6.95
2022-09-21T17:55:57.034Z,6.35
2022-09-21T17:58:50.191Z,8.38
2022-09-21T18:01:37.931Z,5.82
2022-09-21T18:04:05.820Z,4.70
2022-09-21T18:06:34.336Z,6.18
2022-09-21T18:09:01.895Z,6.50
2022-09-21T18:12:06.482Z,6.62
2022-09-21T18:14:53.156Z,5.80
2022-09-21T18:17:32.734Z,7.57
2022-09-21T18:20:29.675Z,10.00
2022-09-21T18:23:06.716Z,14.52
2022-09-21T18:25:47.818Z,6.82
2022-09-21T18:28:24.068Z,4.87
2022-09-21T18:31:00.227Z,5.97
2022-09-21T18:33:54.064Z,5.25
2022-09-21T18:36:48.785Z,4.53
2022-09-21T18:39:27.916Z,12.52
2022-09-21T18:42:28.478Z,11.40
2022-09-21T18:45:06.356Z,7.90
2022-09-21T18:47:54.560Z,10.07
2022-09-21T18:50:34.328Z,7.60
2022-09-21T18:53:09.400Z,6.93
2022-09-21T18:55:37.799Z,8.25
2022-09-21T18:58:04.908Z,9.65
2022-09-21T19:00:32.189Z,10.30
2022-09-21T19:03:18.173Z,7.35
2022-09-21T19:05:52.468Z,6.07
2022-09-21T19:08:25.549Z,5.55
2022-09-21T19:11:04.407Z,5.18
2022-09-21T19:13:59.253Z,7.75
2022-09-21T19:16:59.297Z,5.62
2022-09-21T19:19:51.395Z,7.10
2022-09-21T19:22:30.312Z,6.70
2022-09-21T19:25:15.785Z,5.97
2022-09-21T19:27:59.628Z,6.55
2022-09-21T19:30:27.036Z,7.82
2022-09-21T19:32:58.619Z,6.07
2022-09-21T19:35:28.292Z,7.57
2022-09-21T19:38:01.868Z,7.68
2022-09-21T19:40:41.900Z,9.60
2022-09-21T19:43:14.718Z,9.55
2022-09-21T19:45:47.499Z,4.95
2022-09-21T19:48:16.420Z,6.35
2022-09-21T19:50:47.144Z,4.80
2022-09-21T19:53:35.511Z,5.97
2022-09-21T19:56:21.712Z,3.85
2022-09-21T19:59:07.334Z,5.97
2022-09-21T20:01:38.570Z,6.53
2022-09-21T20:04:06.501Z,7.97
2022-09-21T20:06:44.296Z,6.70
2022-09-21T20:09:29.222Z,5.72
2022-09-21T20:12:22.036Z,3.42
2022-09-21T20:15:03.754Z,3.30
2022-09-21T20:17:43.826Z,5.72
2022-09-21T20:20:26.562Z,5.35
2022-09-21T20:22:54.300Z,3.85
2022-09-21T20:25:26.647Z,4.18
2022-09-21T20:27:58.700Z,3.35
2022-09-21T20:30:36.119Z,4.47
2022-09-21T20:33:09.315Z,7.57
2022-09-21T20:35:36.190Z,5.10
2022-09-21T20:38:03.291Z,4.45
2022-09-21T20:40:32.509Z,4.55
2022-09-21T20:43:01.342Z,5.93
2022-09-21T20:45:29.464Z,8.52
2022-09-21T20:47:57.460Z,4.25
2022-09-21T20:50:30.513Z,3.97
2022-09-21T20:52:57.461Z,5.53
2022-09-21T20:55:24.498Z,6.43
2022-09-21T20:57:51.245Z,4.68
2022-09-21T21:00:19.530Z,7.72
2022-09-21T21:02:46.327Z,6.25
2022-09-21T21:05:13.047Z,4.78
2022-09-21T21:07:43.560Z,3.92
2022-09-21T21:10:15.746Z,5.85
2022-09-21T21:12:42.748Z,4.93
2022-09-21T21:15:10.306Z,3.70
2022-09-21T21:17:37.149Z,3.35
2022-09-21T21:20:05.736Z,4.57
2022-09-21T21:22:33.086Z,4.22
2022-09-21T21:24:59.796Z,2.83
2022-09-21T21:27:28.145Z,2.78
2022-09-21T21:29:55.628Z,8.07
2022-09-21T21:32:24.676Z,4.30
2022-09-21T21:34:52.686Z,4.93
2022-09-21T21:37:21.328Z,4.35
2022-09-21T21:39:48.254Z,4.45
2022-09-21T21:42:15.417Z,3.22
2022-09-21T21:44:42.154Z,5.93
2022-09-21T21:47:37.720Z,3.45
2022-09-21T21:49:55.540Z,3.42
2022-09-21T21:52:22.325Z,3.62
2022-09-21T21:54:50.154Z,4.53
2022-09-21T21:57:16.986Z,4.32
2022-09-21T21:59:43.965Z,4.45
2022-09-21T22:02:10.821Z,3.37
2022-09-21T22:04:38.871Z,3.30
2022-09-21T22:07:06.110Z,4.00
2022-09-21T22:09:32.925Z,4.10
2022-09-21T22:12:02.074Z,5.85
2022-09-21T22:14:28.866Z,3.83
2022-09-21T22:16:55.743Z,3.25
2022-09-21T22:19:22.473Z,5.78
2022-09-21T22:21:53.972Z,7.68
2022-09-21T22:24:22.427Z,5.03
2022-09-21T22:26:49.526Z,2.72
2022-09-21T22:29:17.494Z,4.10
2022-09-21T22:31:47.204Z,4.25
2022-09-21T22:34:14.907Z,3.25
2022-09-21T22:36:43.980Z,3.10
2022-09-21T22:39:12.328Z,3.20
2022-09-21T22:41:41.138Z,2.45
2022-09-21T22:44:09.173Z,2.97
2022-09-21T22:46:36.873Z,3.10
2022-09-21T22:49:04.501Z,3.30
2022-09-21T22:51:31.792Z,3.15
2022-09-21T22:53:58.877Z,3.20
2022-09-21T22:56:29.154Z,3.50
2022-09-21T22:58:58.825Z,3.28
2022-09-21T23:01:28.792Z,4.07
2022-09-21T23:03:58.724Z,4.75
2022-09-21T23:06:28.263Z,3.40
2022-09-21T23:08:57.760Z,3.65
2022-09-21T23:11:30.590Z,2.70
2022-09-21T23:13:59.214Z,4.25
2022-09-21T23:16:28.467Z,2.60
2022-09-21T23:18:56.449Z,3.67
2022-09-21T23:21:26.308Z,5.53
2022-09-21T23:26:32.234Z,2.95
2022-09-21T23:29:01.250Z,5.30
2022-09-21T23:31:29.265Z,3.87
2022-09-21T23:33:59.230Z,3.37
2022-09-21T23:38:57.333Z,2.83
2022-09-21T23:41:27.379Z,2.97
2022-09-21T23:43:54.740Z,2.00
2022-09-21T23:46:25.539Z,2.40
2022-09-21T23:48:52.612Z,3.25
2022-09-21T23:51:19.636Z,3.87
2022-09-21T23:53:46.990Z,2.80
2022-09-21T23:56:17.569Z,4.50
2022-09-21T23:58:44.458Z,2.35
